createdAt,value
2019-03-06T00:00:50.202Z,983.59
2019-03-06T00:01:54.197Z,983.52
2019-03-06T00:02:50.698Z,983.56
2019-03-06T00:03:50.697Z,983.60
2019-03-06T00:04:50.696Z,983.60
2019-03-06T00:05:50.698Z,983.57
2019-03-06T00:07:15.697Z,983.58
2019-03-06T00:07:51.199Z,983.58
2019-03-06T00:08:51.196Z,983.52
2019-03-06T00:09:51.200Z,983.57
2019-03-06T00:11:12.697Z,983.52
2019-03-06T00:11:51.695Z,983.56
2019-03-06T00:12:55.695Z,983.52
2019-03-06T00:13:51.695Z,983.58
2019-03-06T00:17:57.847Z,983.56
2019-03-06T00:18:55.359Z,983.55
2019-03-06T00:19:56.288Z,983.58
2019-03-06T00:20:55.859Z,983.59
2019-03-06T00:21:55.851Z,983.50
2019-03-06T00:23:01.989Z,983.52
2019-03-06T00:23:55.857Z,983.50
2019-03-06T00:24:56.359Z,983.50
2019-03-06T00:25:56.353Z,983.50
2019-03-06T00:26:56.355Z,983.45
2019-03-06T00:27:56.353Z,983.46
2019-03-06T00:29:23.787Z,983.48
2019-03-06T00:30:19.850Z,983.47
2019-03-06T00:30:56.853Z,983.47
2019-03-06T00:31:56.852Z,983.43
2019-03-06T00:32:57.352Z,983.47
2019-03-06T00:34:00.853Z,983.47
2019-03-06T00:34:57.354Z,983.50
2019-03-06T00:35:57.363Z,983.46
2019-03-06T00:36:57.868Z,983.42
2019-03-06T00:37:57.851Z,983.43
2019-03-06T00:38:58.814Z,983.42
2019-03-06T00:40:22.851Z,983.46
2019-03-06T00:40:57.852Z,983.41
2019-03-06T00:41:58.351Z,983.39
2019-03-06T00:42:58.351Z,983.39
2019-03-06T00:43:58.353Z,983.34
2019-03-06T00:44:58.350Z,983.39
2019-03-06T00:46:03.314Z,983.38
2019-03-06T00:46:58.852Z,983.34
2019-03-06T00:47:58.850Z,983.37
2019-03-06T00:48:58.874Z,983.36
2019-03-06T00:49:58.857Z,983.35
2019-03-06T00:51:05.353Z,983.34
2019-03-06T00:51:59.350Z,983.33
2019-03-06T00:52:59.351Z,983.32
2019-03-06T00:53:59.351Z,983.33
2019-03-06T00:54:59.854Z,983.30
2019-03-06T00:55:59.849Z,983.35
2019-03-06T00:57:02.849Z,983.29
2019-03-06T00:57:59.851Z,983.30
2019-03-06T01:02:07.046Z,983.25
2019-03-06T01:03:05.549Z,983.24
2019-03-06T01:04:04.515Z,983.23
2019-03-06T01:05:24.552Z,983.19
2019-03-06T01:06:03.553Z,983.23
2019-03-06T01:07:28.552Z,983.20
2019-03-06T01:08:04.048Z,983.20
2019-03-06T01:09:25.055Z,983.17
2019-03-06T01:10:04.061Z,983.20
2019-03-06T01:11:05.990Z,983.19
2019-03-06T01:12:06.552Z,983.17
2019-03-06T01:13:08.592Z,983.18
2019-03-06T01:14:04.603Z,983.18
2019-03-06T01:15:04.552Z,983.17
2019-03-06T01:16:05.054Z,983.19
2019-03-06T01:17:07.047Z,983.17
2019-03-06T01:18:05.051Z,983.15
2019-03-06T01:19:08.578Z,983.19
2019-03-06T01:20:05.559Z,983.13
2019-03-06T01:22:36.908Z,983.10
2019-03-06T01:23:57.911Z,983.08
2019-03-06T01:24:40.915Z,983.07
2019-03-06T01:25:37.411Z,983.05
2019-03-06T01:26:39.409Z,983.05
2019-03-06T01:27:37.419Z,983.00
2019-03-06T01:28:37.409Z,983.02
2019-03-06T01:29:37.931Z,982.97
2019-03-06T01:30:40.907Z,983.00
2019-03-06T01:31:37.908Z,982.99
2019-03-06T01:32:37.908Z,982.93
2019-03-06T01:33:40.408Z,982.94
2019-03-06T01:34:38.408Z,982.87
2019-03-06T01:35:41.915Z,982.92
2019-03-06T01:36:38.408Z,982.96
2019-03-06T01:37:59.914Z,982.91
2019-03-06T01:38:38.908Z,982.93
2019-03-06T01:39:38.908Z,982.88
2019-03-06T01:40:38.908Z,982.87
2019-03-06T01:41:42.908Z,982.86
2019-03-06T01:42:39.406Z,982.89
2019-03-06T01:44:00.405Z,982.87
2019-03-06T01:44:39.408Z,982.89
2019-03-06T01:45:39.907Z,982.90
2019-03-06T01:47:04.407Z,982.96
2019-03-06T01:47:39.915Z,982.96
2019-03-06T01:48:39.910Z,982.96
2019-03-06T01:49:41.866Z,982.99
2019-03-06T01:51:01.411Z,983.01
2019-03-06T01:51:40.406Z,983.05
2019-03-06T01:52:44.406Z,983.02
2019-03-06T01:53:40.407Z,983.03
2019-03-06T01:54:40.906Z,983.02
2019-03-06T01:55:40.906Z,983.05
2019-03-06T01:56:40.908Z,983.03
2019-03-06T01:57:40.907Z,983.05
2019-03-06T01:58:45.406Z,983.05
2019-03-06T02:01:12.768Z,983.03
2019-03-06T02:02:12.771Z,983.00
2019-03-06T02:03:12.767Z,983.04
2019-03-06T02:04:16.770Z,983.05
2019-03-06T02:05:13.267Z,983.07
2019-03-06T02:06:34.267Z,983.05
2019-03-06T02:07:13.266Z,983.05
2019-03-06T02:08:15.767Z,983.03
2019-03-06T02:09:38.268Z,983.02
2019-03-06T02:10:13.766Z,983.04
2019-03-06T02:11:15.766Z,982.99
2019-03-06T02:12:35.269Z,982.98
2019-03-06T02:13:14.266Z,982.93
2019-03-06T02:14:14.267Z,982.93
2019-03-06T02:15:17.766Z,982.91
2019-03-06T02:16:14.768Z,982.85
2019-03-06T02:17:14.779Z,982.86
2019-03-06T02:18:14.766Z,982.82
2019-03-06T02:19:15.699Z,982.83
2019-03-06T02:20:40.269Z,982.75
2019-03-06T02:21:38.265Z,982.73
2019-03-06T02:22:15.268Z,982.77
2019-03-06T02:23:40.203Z,982.77
2019-03-06T02:24:15.765Z,982.73
2019-03-06T02:25:28.199Z,982.67
2019-03-06T02:26:20.218Z,982.65
2019-03-06T02:27:15.766Z,982.66
2019-03-06T02:28:15.774Z,982.65
2019-03-06T02:29:18.267Z,982.67
2019-03-06T02:30:16.266Z,982.60
2019-03-06T02:31:20.264Z,982.56
2019-03-06T02:32:16.273Z,982.51
2019-03-06T02:33:37.768Z,982.53
2019-03-06T02:34:16.767Z,982.46
2019-03-06T02:35:16.777Z,982.44
2019-03-06T02:36:16.765Z,982.48
2019-03-06T02:37:20.264Z,982.46
2019-03-06T02:38:17.289Z,982.47
2019-03-06T02:39:17.265Z,982.44
2019-03-06T02:40:17.264Z,982.44
2019-03-06T02:41:18.721Z,982.43
2019-03-06T02:42:42.266Z,982.46
2019-03-06T02:43:17.764Z,982.43
2019-03-06T02:44:17.763Z,982.41
2019-03-06T02:45:17.770Z,982.39
2019-03-06T02:46:18.260Z,982.45
2019-03-06T02:47:18.266Z,982.44
2019-03-06T02:48:42.263Z,982.41
2019-03-06T02:49:18.264Z,982.41
2019-03-06T02:50:39.761Z,982.39
2019-03-06T02:51:18.772Z,982.39
2019-03-06T02:52:18.762Z,982.37
2019-03-06T02:53:22.762Z,982.35
2019-03-06T02:54:19.263Z,982.37
2019-03-06T02:55:19.262Z,982.38
2019-03-06T02:56:23.197Z,982.39
2019-03-06T02:57:19.264Z,982.41
2019-03-06T02:58:22.764Z,982.34
2019-03-06T02:59:19.763Z,982.38
2019-03-06T03:00:19.763Z,982.33
2019-03-06T03:01:19.761Z,982.37
2019-03-06T03:03:55.493Z,982.33
2019-03-06T03:04:51.498Z,982.32
2019-03-06T03:05:51.496Z,982.30
2019-03-06T03:07:13.001Z,982.27
2019-03-06T03:07:52.008Z,982.32
2019-03-06T03:08:52.003Z,982.30
2019-03-06T03:09:55.494Z,982.29
2019-03-06T03:10:52.498Z,982.29
2019-03-06T03:12:13.525Z,982.30
2019-03-06T03:12:52.503Z,982.29
2019-03-06T03:13:52.495Z,982.31
2019-03-06T03:16:27.870Z,982.27
2019-03-06T03:17:27.873Z,982.22
2019-03-06T03:18:27.873Z,982.25
2019-03-06T03:21:03.603Z,982.22
2019-03-06T03:21:59.608Z,982.24
2019-03-06T03:22:59.610Z,982.20
2019-03-06T03:24:00.109Z,982.20
2019-03-06T03:25:21.102Z,982.20
2019-03-06T03:26:05.612Z,982.18
2019-03-06T03:27:01.064Z,982.14
2019-03-06T03:28:00.607Z,982.14
2019-03-06T03:29:01.566Z,982.14
2019-03-06T03:30:00.765Z,982.09
2019-03-06T03:31:00.609Z,982.07
2019-03-06T03:32:09.049Z,982.07
2019-03-06T03:33:00.608Z,982.02
2019-03-06T03:35:32.340Z,982.00
2019-03-06T03:36:32.338Z,981.97
2019-03-06T03:39:07.723Z,981.93
2019-03-06T03:40:07.730Z,981.92
2019-03-06T03:41:07.742Z,981.91
2019-03-06T03:42:09.184Z,981.97
2019-03-06T03:43:12.244Z,982.00
2019-03-06T03:44:08.230Z,982.04
2019-03-06T03:45:08.242Z,982.05
2019-03-06T03:46:08.229Z,982.05
2019-03-06T03:47:08.728Z,982.06
2019-03-06T03:48:08.727Z,981.98
2019-03-06T03:49:11.729Z,981.98
2019-03-06T03:50:08.729Z,982.01
2019-03-06T03:51:10.695Z,981.99
2019-03-06T03:52:09.227Z,981.95
2019-03-06T03:53:09.237Z,981.94
2019-03-06T03:54:13.234Z,981.93
2019-03-06T03:55:09.226Z,981.88
2019-03-06T03:56:09.728Z,981.88
2019-03-06T03:57:09.731Z,981.80
2019-03-06T03:58:09.730Z,981.82
2019-03-06T03:59:09.729Z,981.78
2019-03-06T04:00:35.241Z,981.75
2019-03-06T04:01:10.229Z,981.71
2019-03-06T04:02:10.228Z,981.70
2019-03-06T04:03:10.283Z,981.71
2019-03-06T04:04:10.723Z,981.72
2019-03-06T04:05:10.731Z,981.71
2019-03-06T04:06:35.226Z,981.76
2019-03-06T04:07:10.726Z,981.83
2019-03-06T04:08:12.167Z,981.84
2019-03-06T04:09:11.233Z,981.84
2019-03-06T04:10:32.234Z,981.87
2019-03-06T04:11:18.185Z,981.88
2019-03-06T04:12:11.228Z,981.84
2019-03-06T04:13:11.225Z,981.85
2019-03-06T04:15:42.958Z,981.82
2019-03-06T04:17:07.957Z,981.83
2019-03-06T04:17:42.961Z,981.82
2019-03-06T04:18:43.462Z,981.81
2019-03-06T04:19:43.462Z,981.80
2019-03-06T04:20:43.469Z,981.78
2019-03-06T04:21:43.463Z,981.74
2019-03-06T04:22:47.966Z,981.74
2019-03-06T04:23:43.966Z,981.67
2019-03-06T04:24:43.964Z,981.66
2019-03-06T04:25:43.961Z,981.65
2019-03-06T04:26:44.458Z,981.66
2019-03-06T04:27:44.473Z,981.69
2019-03-06T04:28:47.963Z,981.74
2019-03-06T04:29:44.560Z,981.79
2019-03-06T04:31:05.963Z,981.79
2019-03-06T04:31:44.960Z,981.78
2019-03-06T04:32:44.960Z,981.79
2019-03-06T04:34:09.960Z,981.76
2019-03-06T04:35:06.460Z,981.78
2019-03-06T04:35:46.397Z,981.67
2019-03-06T04:36:45.464Z,981.65
2019-03-06T04:37:45.461Z,981.61
2019-03-06T04:38:45.959Z,981.58
2019-03-06T04:39:49.959Z,981.55
2019-03-06T04:40:45.987Z,981.56
2019-03-06T04:41:45.960Z,981.54
2019-03-06T04:42:46.460Z,981.58
2019-03-06T04:43:46.458Z,981.56
2019-03-06T04:44:46.458Z,981.56
2019-03-06T04:45:49.958Z,981.57
2019-03-06T04:46:46.971Z,981.58
2019-03-06T04:47:47.042Z,981.55
2019-03-06T04:48:46.958Z,981.57
2019-03-06T04:49:52.792Z,981.52
2019-03-06T04:50:50.958Z,981.50
2019-03-06T04:51:47.462Z,981.54
2019-03-06T04:52:47.458Z,981.51
2019-03-06T04:53:47.457Z,981.49
2019-03-06T04:54:47.957Z,981.51
2019-03-06T04:55:47.961Z,981.47
2019-03-06T04:56:51.958Z,981.51
2019-03-06T04:57:47.967Z,981.54
2019-03-06T04:58:48.457Z,981.55
2019-03-06T04:59:48.457Z,981.54
2019-03-06T05:00:48.461Z,981.57
2019-03-06T05:01:48.455Z,981.58
2019-03-06T05:02:51.959Z,981.61
2019-03-06T05:03:48.957Z,981.55
2019-03-06T05:04:48.957Z,981.57
2019-03-06T05:05:48.960Z,981.53
2019-03-06T05:07:10.456Z,981.51
2019-03-06T05:07:52.952Z,981.47
2019-03-06T05:08:49.459Z,981.45
2019-03-06T05:09:49.456Z,981.43
2019-03-06T05:10:49.964Z,981.36
2019-03-06T05:11:49.956Z,981.34
2019-03-06T05:12:49.957Z,981.29
2019-03-06T05:13:53.956Z,981.33
2019-03-06T05:14:49.546Z,981.27
2019-03-06T05:16:11.456Z,981.25
2019-03-06T05:17:11.454Z,981.28
2019-03-06T05:17:50.462Z,981.32
2019-03-06T05:18:49.935Z,981.29
2019-03-06T05:19:53.961Z,981.37
2019-03-06T05:20:50.962Z,981.43
2019-03-06T05:21:50.954Z,981.43
2019-03-06T05:22:50.956Z,981.38
2019-03-06T05:23:51.455Z,981.39
2019-03-06T05:24:55.455Z,981.36
2019-03-06T05:25:51.455Z,981.28
2019-03-06T05:26:51.454Z,981.23
2019-03-06T05:27:51.957Z,981.25
2019-03-06T05:28:51.954Z,981.23
2019-03-06T05:29:51.954Z,981.24
2019-03-06T05:30:55.457Z,981.29
2019-03-06T05:33:44.696Z,981.29
2019-03-06T05:34:23.699Z,981.18
2019-03-06T05:35:23.693Z,981.18
2019-03-06T05:36:27.693Z,981.11
2019-03-06T05:37:24.241Z,981.12
2019-03-06T05:38:24.196Z,981.12
2019-03-06T05:39:24.193Z,981.16
2019-03-06T05:40:25.631Z,981.11
2019-03-06T05:41:24.692Z,981.10
2019-03-06T05:42:27.691Z,981.06
2019-03-06T05:43:24.692Z,981.03
2019-03-06T05:44:46.192Z,981.02
2019-03-06T05:45:25.192Z,981.00
2019-03-06T05:46:25.194Z,981.02
2019-03-06T05:47:29.192Z,981.01
2019-03-06T05:48:27.694Z,981.01
2019-03-06T05:50:57.051Z,981.03
2019-03-06T05:51:57.065Z,981.02
2019-03-06T05:53:00.556Z,981.00
2019-03-06T05:53:57.554Z,981.01
2019-03-06T05:55:18.555Z,981.01
2019-03-06T05:55:57.559Z,980.98
2019-03-06T05:56:57.562Z,980.97
2019-03-06T05:58:01.553Z,980.97
2019-03-06T05:59:19.055Z,980.95
2019-03-06T05:59:58.054Z,980.95
2019-03-06T06:00:58.058Z,980.97
2019-03-06T06:01:58.567Z,980.95
2019-03-06T06:03:23.053Z,981.00
2019-03-06T06:03:58.558Z,980.98
2019-03-06T06:04:58.553Z,980.97
2019-03-06T06:05:59.141Z,980.95
2019-03-06T06:06:59.054Z,980.93
2019-03-06T06:07:59.054Z,980.89
2019-03-06T06:09:03.053Z,980.88
2019-03-06T06:09:59.553Z,980.86
2019-03-06T06:10:59.556Z,980.84
2019-03-06T06:11:59.553Z,980.78
2019-03-06T06:12:59.570Z,980.78
2019-03-06T06:14:00.054Z,980.72
2019-03-06T06:15:04.055Z,980.64
2019-03-06T06:16:00.058Z,980.64
2019-03-06T06:17:00.061Z,980.62
2019-03-06T06:19:31.793Z,980.60
2019-03-06T06:20:35.299Z,980.61
2019-03-06T06:21:31.806Z,980.61
2019-03-06T06:22:32.299Z,980.58
2019-03-06T06:23:32.298Z,980.62
2019-03-06T06:24:32.309Z,980.62
2019-03-06T06:25:32.308Z,980.60
2019-03-06T06:26:36.302Z,980.55
2019-03-06T06:27:53.799Z,980.58
2019-03-06T06:28:32.806Z,980.54
2019-03-06T06:29:32.803Z,980.53
2019-03-06T06:30:55.734Z,980.44
2019-03-06T06:32:03.803Z,980.49
2019-03-06T06:32:39.299Z,980.44
2019-03-06T06:33:33.296Z,980.40
2019-03-06T06:34:35.800Z,980.39
2019-03-06T06:37:09.155Z,980.39
2019-03-06T06:38:05.168Z,980.39
2019-03-06T06:39:05.164Z,980.35
2019-03-06T06:40:05.664Z,980.35
2019-03-06T06:41:05.666Z,980.33
2019-03-06T06:42:05.669Z,980.33
2019-03-06T06:43:09.165Z,980.30
2019-03-06T06:44:06.163Z,980.27
2019-03-06T06:45:05.385Z,980.29
2019-03-06T06:46:07.631Z,980.25
2019-03-06T06:47:06.164Z,980.26
2019-03-06T06:48:10.159Z,980.30
2019-03-06T06:49:06.663Z,980.29
2019-03-06T06:50:06.663Z,980.33
2019-03-06T06:51:06.663Z,980.35
2019-03-06T06:52:07.174Z,980.34
2019-03-06T06:53:07.165Z,980.25
2019-03-06T06:54:10.163Z,980.17
2019-03-06T06:55:07.166Z,980.19
2019-03-06T06:56:07.663Z,980.19
2019-03-06T06:58:39.018Z,980.17
2019-03-06T06:59:45.033Z,980.14
2019-03-06T07:00:38.624Z,980.13
2019-03-06T07:03:11.353Z,980.13
2019-03-06T07:04:10.699Z,980.14
2019-03-06T07:05:15.363Z,980.17
2019-03-06T07:06:11.369Z,980.22
2019-03-06T07:07:11.862Z,980.16
2019-03-06T07:08:11.863Z,980.11
2019-03-06T07:09:11.866Z,980.17
2019-03-06T07:10:15.862Z,980.18
2019-03-06T07:11:13.874Z,980.18
2019-03-06T07:12:12.362Z,980.17
2019-03-06T07:13:13.798Z,980.22
2019-03-06T07:14:12.361Z,980.24
2019-03-06T07:15:12.363Z,980.18
2019-03-06T07:16:15.862Z,980.21
2019-03-06T07:17:13.815Z,980.19
2019-03-06T07:18:12.861Z,980.15
2019-03-06T07:19:12.870Z,980.13
2019-03-06T07:20:12.861Z,980.12
2019-03-06T07:21:16.861Z,980.12
2019-03-06T07:23:44.594Z,980.06
2019-03-06T07:24:44.601Z,980.11
2019-03-06T07:26:05.602Z,980.13
2019-03-06T07:26:48.602Z,980.17
2019-03-06T07:27:45.117Z,980.14
2019-03-06T07:28:45.102Z,980.17
2019-03-06T07:29:45.100Z,980.18
2019-03-06T07:30:45.601Z,980.17
2019-03-06T07:31:49.604Z,980.18
2019-03-06T07:32:45.601Z,980.15
2019-03-06T07:33:45.601Z,980.13
2019-03-06T07:34:46.102Z,980.18
2019-03-06T07:35:46.100Z,980.17
2019-03-06T07:36:49.602Z,980.23
2019-03-06T07:37:46.104Z,980.25
2019-03-06T07:38:46.600Z,980.26
2019-03-06T07:39:46.600Z,980.21
2019-03-06T07:40:46.600Z,980.21
2019-03-06T07:41:46.600Z,980.31
2019-03-06T07:42:50.603Z,980.22
2019-03-06T07:45:39.462Z,980.23
2019-03-06T07:46:18.468Z,980.20
2019-03-06T07:47:18.467Z,980.25
2019-03-06T07:48:23.439Z,980.24
2019-03-06T07:49:18.969Z,980.18
2019-03-06T07:50:18.967Z,980.20
2019-03-06T07:51:18.969Z,980.24
2019-03-06T07:52:19.466Z,980.26
2019-03-06T07:53:43.966Z,980.20
2019-03-06T07:54:19.467Z,980.19
2019-03-06T07:55:19.468Z,980.22
2019-03-06T07:56:19.965Z,980.24
2019-03-06T07:57:19.967Z,980.16
2019-03-06T07:58:19.970Z,980.21
2019-03-06T07:59:22.764Z,980.21
2019-03-06T08:00:20.466Z,980.17
2019-03-06T08:01:20.468Z,980.18
2019-03-06T08:02:20.472Z,980.19
2019-03-06T08:03:42.944Z,980.20
2019-03-06T08:04:24.466Z,980.21
2019-03-06T08:05:43.969Z,980.25
2019-03-06T08:07:52.328Z,980.21
2019-03-06T08:08:52.337Z,980.23
2019-03-06T08:09:56.337Z,980.17
2019-03-06T08:10:52.835Z,980.18
2019-03-06T08:11:52.843Z,980.19
2019-03-06T08:12:52.844Z,980.18
2019-03-06T08:13:52.835Z,980.20
2019-03-06T08:14:53.335Z,980.22
2019-03-06T08:15:57.335Z,980.18
2019-03-06T08:16:53.341Z,980.14
2019-03-06T08:17:53.335Z,980.16
2019-03-06T08:18:55.934Z,980.18
2019-03-06T08:19:53.835Z,980.12
2019-03-06T08:20:53.838Z,980.11
2019-03-06T08:21:57.335Z,980.12
2019-03-06T08:22:54.335Z,980.11
2019-03-06T08:23:54.364Z,980.11
2019-03-06T08:24:54.334Z,980.13
2019-03-06T08:25:54.336Z,980.09
2019-03-06T08:26:58.335Z,980.08
2019-03-06T08:27:54.834Z,980.03
2019-03-06T08:28:54.834Z,980.03
2019-03-06T08:29:54.837Z,979.99
2019-03-06T08:30:55.334Z,980.05
2019-03-06T08:31:55.330Z,980.02
2019-03-06T08:32:59.346Z,980.00
2019-03-06T08:33:55.335Z,980.01
2019-03-06T08:34:55.834Z,980.04
2019-03-06T08:35:57.268Z,979.98
2019-03-06T08:36:55.841Z,980.02
2019-03-06T08:39:31.738Z,979.94
2019-03-06T08:40:52.741Z,979.95
2019-03-06T08:41:31.759Z,979.95
2019-03-06T08:42:53.248Z,980.00
2019-03-06T08:43:57.248Z,979.93
2019-03-06T08:44:53.244Z,979.87
2019-03-06T08:45:33.682Z,979.86
2019-03-06T08:46:46.744Z,979.86
2019-03-06T08:47:32.743Z,979.86
2019-03-06T08:48:32.745Z,979.84
2019-03-06T08:49:57.245Z,979.89
2019-03-06T08:50:54.242Z,979.84
2019-03-06T08:51:36.182Z,979.86
2019-03-06T08:52:33.247Z,979.87
2019-03-06T08:53:33.246Z,979.87
2019-03-06T08:54:37.244Z,979.90
2019-03-06T08:55:54.773Z,979.90
2019-03-06T08:56:33.743Z,979.90
2019-03-06T08:57:33.745Z,979.90
2019-03-06T08:58:55.250Z,979.89
2019-03-06T08:59:36.245Z,979.90
2019-03-06T09:00:38.245Z,979.81
2019-03-06T09:01:34.245Z,979.78
2019-03-06T09:02:55.747Z,979.71
2019-03-06T09:03:34.798Z,979.66
2019-03-06T09:04:34.744Z,979.65
2019-03-06T09:05:34.752Z,979.60
2019-03-06T09:06:39.179Z,979.58
2019-03-06T09:07:35.241Z,979.57
2019-03-06T09:08:35.246Z,979.55
2019-03-06T09:09:35.244Z,979.53
2019-03-06T09:10:35.743Z,979.53
2019-03-06T09:11:39.570Z,979.52
2019-03-06T09:12:35.744Z,979.51
2019-03-06T09:13:35.745Z,979.49
2019-03-06T09:14:57.244Z,979.52
2019-03-06T09:15:36.252Z,979.51
2019-03-06T09:16:36.244Z,979.47
2019-03-06T09:17:40.244Z,979.47
2019-03-06T09:18:36.744Z,979.44
2019-03-06T09:19:36.745Z,979.44
2019-03-06T09:20:40.709Z,979.44
2019-03-06T09:21:36.744Z,979.46
2019-03-06T09:22:37.242Z,979.39
2019-03-06T09:23:40.243Z,979.44
2019-03-06T09:24:37.244Z,979.44
2019-03-06T09:25:37.247Z,979.45
2019-03-06T09:26:37.761Z,979.40
2019-03-06T09:27:38.706Z,979.33
2019-03-06T09:29:02.747Z,979.36
2019-03-06T09:29:37.747Z,979.35
2019-03-06T09:30:37.749Z,979.36
2019-03-06T09:31:44.262Z,979.37
2019-03-06T09:32:38.244Z,979.38
2019-03-06T09:33:41.749Z,979.30
2019-03-06T09:34:38.244Z,979.30
2019-03-06T09:35:38.750Z,979.29
2019-03-06T09:36:38.744Z,979.25
2019-03-06T09:37:38.743Z,979.27
2019-03-06T09:38:42.743Z,979.21
2019-03-06T09:41:31.480Z,979.13
2019-03-06T09:42:10.489Z,979.12
2019-03-06T09:43:10.492Z,979.06
2019-03-06T09:44:14.490Z,979.00
2019-03-06T09:45:10.989Z,979.03
2019-03-06T09:46:10.989Z,978.92
2019-03-06T09:47:10.989Z,978.88
2019-03-06T09:48:12.775Z,978.89
2019-03-06T09:49:35.993Z,978.89
2019-03-06T09:50:11.489Z,978.89
2019-03-06T09:51:11.489Z,978.84
2019-03-06T09:53:43.226Z,978.85
2019-03-06T09:55:08.235Z,978.79
2019-03-06T09:55:43.236Z,978.80
2019-03-06T09:57:03.800Z,978.75
2019-03-06T09:58:04.738Z,978.81
2019-03-06T09:58:43.734Z,978.73
2019-03-06T09:59:43.738Z,978.72
2019-03-06T10:00:47.233Z,978.74
2019-03-06T10:01:44.233Z,978.73
2019-03-06T10:02:44.233Z,978.74
2019-03-06T10:03:44.259Z,978.78
2019-03-06T10:04:44.233Z,978.78
2019-03-06T10:05:48.234Z,978.70
2019-03-06T10:06:44.734Z,978.70
2019-03-06T10:07:44.771Z,978.65
2019-03-06T10:08:44.734Z,978.67
2019-03-06T10:10:12.239Z,978.64
2019-03-06T10:11:09.734Z,978.56
2019-03-06T10:11:45.233Z,978.58
2019-03-06T10:12:47.671Z,978.52
2019-03-06T10:13:45.733Z,978.49
2019-03-06T10:14:45.729Z,978.49
2019-03-06T10:15:45.739Z,978.46
2019-03-06T10:16:49.203Z,978.40
2019-03-06T10:17:45.733Z,978.42
2019-03-06T10:19:13.236Z,978.36
2019-03-06T10:19:46.240Z,978.41
2019-03-06T10:20:46.240Z,978.42
2019-03-06T10:21:46.233Z,978.39
2019-03-06T10:22:50.735Z,978.38
2019-03-06T10:23:47.512Z,978.38
2019-03-06T10:24:46.735Z,978.41
2019-03-06T10:25:46.734Z,978.36
2019-03-06T10:27:08.235Z,978.31
2019-03-06T10:27:47.242Z,978.30
2019-03-06T10:28:50.738Z,978.31
2019-03-06T10:30:09.202Z,978.33
2019-03-06T10:31:08.741Z,978.28
2019-03-06T10:31:49.186Z,978.27
2019-03-06T10:33:08.734Z,978.21
2019-03-06T10:33:50.759Z,978.19
2019-03-06T10:34:47.733Z,978.18
2019-03-06T10:35:48.239Z,978.13
2019-03-06T10:36:48.236Z,978.13
2019-03-06T10:37:48.235Z,978.18
2019-03-06T10:39:14.175Z,978.16
2019-03-06T10:39:48.734Z,978.15
2019-03-06T10:41:09.734Z,978.14
2019-03-06T10:41:54.734Z,978.22
2019-03-06T10:42:48.733Z,978.14
2019-03-06T10:43:49.651Z,978.12
2019-03-06T10:46:24.813Z,978.10
2019-03-06T10:47:45.830Z,978.07
2019-03-06T10:48:24.810Z,978.07
2019-03-06T10:49:46.311Z,978.09
2019-03-06T10:50:28.856Z,978.08
2019-03-06T10:51:25.350Z,978.05
2019-03-06T10:52:25.808Z,978.04
2019-03-06T10:53:25.810Z,978.04
2019-03-06T10:54:25.810Z,977.99
2019-03-06T10:55:28.816Z,978.08
2019-03-06T10:56:25.814Z,978.04
2019-03-06T10:59:18.503Z,978.05
2019-03-06T10:59:57.562Z,978.03
2019-03-06T11:01:01.066Z,978.01
2019-03-06T11:01:59.022Z,977.98
2019-03-06T11:03:19.057Z,978.00
2019-03-06T11:03:58.058Z,977.98
2019-03-06T11:04:58.064Z,977.97
2019-03-06T11:05:58.060Z,977.92
2019-03-06T11:07:02.064Z,977.91
2019-03-06T11:07:58.561Z,977.87
2019-03-06T11:08:58.565Z,977.89
2019-03-06T11:09:58.560Z,977.85
2019-03-06T11:12:54.799Z,977.90
2019-03-06T11:13:30.308Z,977.78
2019-03-06T11:14:30.307Z,977.73
2019-03-06T11:15:55.602Z,977.76
2019-03-06T11:16:32.505Z,977.80
2019-03-06T11:17:30.813Z,977.88
2019-03-06T11:18:34.814Z,977.82
2019-03-06T11:19:53.796Z,977.95
2019-03-06T11:20:31.312Z,977.82
2019-03-06T11:21:31.319Z,977.89
2019-03-06T11:22:31.308Z,977.88
2019-03-06T11:23:56.318Z,977.81
2019-03-06T11:24:31.809Z,977.86
2019-03-06T11:25:54.271Z,977.85
2019-03-06T11:26:31.803Z,978.10
2019-03-06T11:30:39.018Z,978.09
2019-03-06T11:31:39.026Z,978.07
2019-03-06T11:32:39.026Z,978.01
2019-03-06T11:33:39.530Z,978.00
2019-03-06T11:34:43.024Z,977.88
2019-03-06T11:35:39.526Z,977.75
2019-03-06T11:36:39.003Z,977.69
2019-03-06T11:37:40.034Z,977.61
2019-03-06T11:38:40.026Z,977.51
2019-03-06T11:39:39.385Z,977.46
2019-03-06T11:42:36.700Z,977.37
2019-03-06T11:43:18.142Z,977.44
2019-03-06T11:44:15.712Z,977.36
2019-03-06T11:45:16.211Z,977.36
2019-03-06T11:46:19.709Z,977.40
2019-03-06T11:47:15.592Z,977.32
2019-03-06T11:48:16.207Z,977.27
2019-03-06T11:49:16.712Z,977.23
2019-03-06T11:50:16.712Z,977.28
2019-03-06T11:51:16.707Z,977.26
2019-03-06T11:52:22.452Z,977.31
2019-03-06T11:53:16.306Z,977.24
2019-03-06T11:54:38.213Z,977.20
2019-03-06T11:55:17.207Z,977.24
2019-03-06T11:56:17.212Z,977.18
2019-03-06T11:57:17.707Z,977.11
2019-03-06T11:58:20.708Z,977.12
2019-03-06T11:59:17.709Z,977.06
2019-03-06T12:00:17.182Z,977.07
2019-03-06T12:01:18.210Z,977.02
2019-03-06T12:02:20.206Z,976.92
2019-03-06T12:03:22.208Z,976.95
2019-03-06T12:04:18.215Z,976.93
2019-03-06T12:05:18.755Z,976.89
2019-03-06T12:06:22.143Z,976.87
2019-03-06T12:07:18.708Z,976.86
2019-03-06T12:08:18.708Z,976.78
2019-03-06T12:11:15.456Z,976.87
2019-03-06T12:11:54.462Z,976.81
2019-03-06T12:12:54.469Z,976.90
2019-03-06T12:13:55.039Z,976.80
2019-03-06T12:15:18.461Z,976.80
2019-03-06T12:15:54.970Z,976.80
2019-03-06T12:16:54.965Z,976.79
2019-03-06T12:17:54.962Z,976.81
2019-03-06T12:18:55.465Z,976.76
2019-03-06T12:20:07.502Z,976.68
2019-03-06T12:20:55.464Z,976.68
2019-03-06T12:21:55.462Z,976.60
2019-03-06T12:22:55.960Z,976.57
2019-03-06T12:23:55.963Z,976.48
2019-03-06T12:24:59.966Z,976.49
2019-03-06T12:25:56.001Z,976.45
2019-03-06T12:28:27.754Z,976.42
2019-03-06T12:29:27.948Z,976.39
2019-03-06T12:30:31.759Z,976.40
2019-03-06T12:31:49.261Z,976.35
2019-03-06T12:32:28.261Z,976.39
2019-03-06T12:33:49.259Z,976.45
2019-03-06T12:34:28.260Z,976.50
2019-03-06T12:35:35.221Z,976.44
2019-03-06T12:36:49.760Z,976.39
2019-03-06T12:39:00.257Z,976.27
2019-03-06T12:40:00.298Z,976.21
2019-03-06T12:41:04.266Z,976.20
2019-03-06T12:42:00.765Z,976.13
2019-03-06T12:43:00.770Z,976.24
2019-03-06T12:44:09.929Z,976.23
2019-03-06T12:45:00.766Z,976.32
2019-03-06T12:46:01.270Z,976.22
2019-03-06T12:47:04.267Z,976.22
2019-03-06T12:48:01.265Z,976.26
2019-03-06T12:49:01.268Z,976.18
2019-03-06T12:51:33.014Z,976.07
2019-03-06T12:54:08.875Z,975.93
2019-03-06T12:55:10.875Z,975.88
2019-03-06T12:56:08.873Z,975.85
2019-03-06T12:57:08.876Z,975.86
2019-03-06T12:58:12.376Z,975.84
2019-03-06T12:59:11.377Z,975.80
2019-03-06T13:00:09.387Z,975.74
2019-03-06T13:01:09.375Z,975.69
2019-03-06T13:02:09.878Z,975.67
2019-03-06T13:03:36.876Z,975.66
2019-03-06T13:04:09.876Z,975.62
2019-03-06T13:07:02.499Z,975.64
2019-03-06T13:07:41.511Z,975.61
2019-03-06T13:08:50.281Z,975.47
2019-03-06T13:09:42.031Z,975.42
2019-03-06T13:10:42.007Z,975.43
2019-03-06T13:11:42.007Z,975.45
2019-03-06T13:12:42.007Z,975.41
2019-03-06T13:13:42.510Z,975.37
2019-03-06T13:14:46.507Z,975.36
2019-03-06T13:15:41.862Z,975.27
2019-03-06T13:16:42.508Z,975.28
2019-03-06T13:18:04.009Z,975.17
2019-03-06T13:18:49.008Z,975.13
2019-03-06T13:21:18.222Z,975.04
2019-03-06T13:22:18.234Z,975.01
2019-03-06T13:23:18.236Z,974.96
2019-03-06T13:24:18.730Z,974.99
2019-03-06T13:25:22.229Z,974.95
2019-03-06T13:26:18.731Z,974.92
2019-03-06T13:27:18.737Z,974.84